sensor_id;sensor_type;location;lat;lon;timestamp;P1;durP1;ratioP1;P2;durP2;ratioP2
76155;SDS011;64906;51.290;7.348;2023-08-30T00:01:45;22.97;;;14.37;;
76155;SDS011;64906;51.290;7.348;2023-08-30T00:04:11;21.05;;;14.23;;
76155;SDS011;64906;51.290;7.348;2023-08-30T00:06:37;21.38;;;13.82;;
76155;SDS011;64906;51.290;7.348;2023-08-30T00:09:02;23.60;;;13.33;;
76155;SDS011;64906;51.290;7.348;2023-08-30T00:11:28;18.67;;;12.55;;
76155;SDS011;64906;51.290;7.348;2023-08-30T00:13:57;20.85;;;12.98;;
76155;SDS011;64906;51.290;7.348;2023-08-30T00:16:27;19.73;;;12.50;;
76155;SDS011;64906;51.290;7.348;2023-08-30T00:18:52;20.07;;;12.33;;
76155;SDS011;64906;51.290;7.348;2023-08-30T00:21:18;18.67;;;11.97;;
76155;SDS011;64906;51.290;7.348;2023-08-30T00:23:43;22.00;;;12.17;;
76155;SDS011;64906;51.290;7.348;2023-08-30T00:26:08;18.07;;;12.00;;
76155;SDS011;64906;51.290;7.348;2023-08-30T00:28:33;18.40;;;11.43;;
76155;SDS011;64906;51.290;7.348;2023-08-30T00:30:59;18.63;;;11.60;;
76155;SDS011;64906;51.290;7.348;2023-08-30T00:33:24;16.73;;;11.57;;
76155;SDS011;64906;51.290;7.348;2023-08-30T00:35:56;17.40;;;10.97;;
76155;SDS011;64906;51.290;7.348;2023-08-30T00:38:23;18.42;;;11.73;;
76155;SDS011;64906;51.290;7.348;2023-08-30T00:40:48;15.63;;;10.20;;
76155;SDS011;64906;51.290;7.348;2023-08-30T00:43:14;15.75;;;10.50;;
76155;SDS011;64906;51.290;7.348;2023-08-30T00:45:39;16.63;;;10.70;;
76155;SDS011;64906;51.290;7.348;2023-08-30T00:48:05;17.73;;;11.00;;
76155;SDS011;64906;51.290;7.348;2023-08-30T00:50:31;16.25;;;10.52;;
76155;SDS011;64906;51.290;7.348;2023-08-30T00:52:57;16.60;;;9.88;;
76155;SDS011;64906;51.290;7.348;2023-08-30T00:55:22;16.15;;;9.82;;
76155;SDS011;64906;51.290;7.348;2023-08-30T00:57:48;14.97;;;10.00;;
76155;SDS011;64906;51.290;7.348;2023-08-30T01:00:13;15.03;;;9.33;;
76155;SDS011;64906;51.290;7.348;2023-08-30T01:02:39;18.00;;;9.70;;
76155;SDS011;64906;51.290;7.348;2023-08-30T01:05:04;15.73;;;9.13;;
76155;SDS011;64906;51.290;7.348;2023-08-30T01:07:30;14.05;;;9.07;;
76155;SDS011;64906;51.290;7.348;2023-08-30T01:09:55;13.65;;;8.88;;
76155;SDS011;64906;51.290;7.348;2023-08-30T01:12:28;15.50;;;8.82;;
76155;SDS011;64906;51.290;7.348;2023-08-30T01:15:01;14.40;;;9.43;;
76155;SDS011;64906;51.290;7.348;2023-08-30T01:17:28;13.80;;;9.00;;
76155;SDS011;64906;51.290;7.348;2023-08-30T01:19:59;12.98;;;8.50;;
76155;SDS011;64906;51.290;7.348;2023-08-30T01:27:39;12.57;;;8.13;;
76155;SDS011;64906;51.290;7.348;2023-08-30T01:30:06;13.02;;;7.95;;
76155;SDS011;64906;51.290;7.348;2023-08-30T01:32:33;12.77;;;8.13;;
76155;SDS011;64906;51.290;7.348;2023-08-30T01:34:59;11.85;;;8.00;;
76155;SDS011;64906;51.290;7.348;2023-08-30T01:37:26;11.27;;;7.40;;
76155;SDS011;64906;51.290;7.348;2023-08-30T01:39:52;12.40;;;8.25;;
76155;SDS011;64906;51.290;7.348;2023-08-30T01:42:21;12.45;;;7.85;;
76155;SDS011;64906;51.290;7.348;2023-08-30T01:44:49;12.57;;;7.22;;
76155;SDS011;64906;51.290;7.348;2023-08-30T01:47:16;11.20;;;7.30;;
76155;SDS011;64906;51.290;7.348;2023-08-30T01:49:43;11.93;;;7.38;;
76155;SDS011;64906;51.290;7.348;2023-08-30T01:52:09;10.52;;;6.90;;
76155;SDS011;64906;51.290;7.348;2023-08-30T01:54:35;10.43;;;6.93;;
76155;SDS011;64906;51.290;7.348;2023-08-30T01:57:02;11.40;;;7.13;;
76155;SDS011;64906;51.290;7.348;2023-08-30T01:59:28;11.13;;;7.13;;
76155;SDS011;64906;51.290;7.348;2023-08-30T02:01:54;12.70;;;6.97;;
76155;SDS011;64906;51.290;7.348;2023-08-30T02:04:20;10.80;;;6.50;;
76155;SDS011;64906;51.290;7.348;2023-08-30T02:06:50;10.53;;;6.30;;
76155;SDS011;64906;51.290;7.348;2023-08-30T02:09:24;10.75;;;6.88;;
76155;SDS011;64906;51.290;7.348;2023-08-30T02:11:53;10.23;;;6.40;;
76155;SDS011;64906;51.290;7.348;2023-08-30T02:14:20;10.18;;;6.30;;
76155;SDS011;64906;51.290;7.348;2023-08-30T02:16:47;10.10;;;6.68;;
76155;SDS011;64906;51.290;7.348;2023-08-30T02:19:13;10.10;;;6.43;;
76155;SDS011;64906;51.290;7.348;2023-08-30T02:21:42;10.30;;;6.13;;
76155;SDS011;64906;51.290;7.348;2023-08-30T02:24:08;10.20;;;6.35;;
76155;SDS011;64906;51.290;7.348;2023-08-30T02:26:34;10.85;;;5.93;;
76155;SDS011;64906;51.290;7.348;2023-08-30T02:28:59;10.77;;;6.17;;
76155;SDS011;64906;51.290;7.348;2023-08-30T02:31:24;11.10;;;6.43;;
76155;SDS011;64906;51.290;7.348;2023-08-30T02:33:49;11.88;;;6.25;;
76155;SDS011;64906;51.290;7.348;2023-08-30T02:36:15;8.87;;;5.57;;
76155;SDS011;64906;51.290;7.348;2023-08-30T02:38:40;9.40;;;5.73;;
76155;SDS011;64906;51.290;7.348;2023-08-30T02:41:05;8.10;;;5.13;;
76155;SDS011;64906;51.290;7.348;2023-08-30T02:43:30;9.10;;;5.40;;
76155;SDS011;64906;51.290;7.348;2023-08-30T02:45:56;9.90;;;5.60;;
76155;SDS011;64906;51.290;7.348;2023-08-30T02:48:21;8.80;;;5.37;;
76155;SDS011;64906;51.290;7.348;2023-08-30T02:50:46;10.10;;;5.30;;
76155;SDS011;64906;51.290;7.348;2023-08-30T02:53:12;8.27;;;5.07;;
76155;SDS011;64906;51.290;7.348;2023-08-30T02:55:37;9.83;;;5.43;;
76155;SDS011;64906;51.290;7.348;2023-08-30T02:58:02;8.10;;;4.90;;
76155;SDS011;64906;51.290;7.348;2023-08-30T03:00:28;9.05;;;4.60;;
76155;SDS011;64906;51.290;7.348;2023-08-30T03:02:53;8.07;;;5.10;;
76155;SDS011;64906;51.290;7.348;2023-08-30T03:05:18;10.57;;;5.03;;
76155;SDS011;64906;51.290;7.348;2023-08-30T03:07:44;8.90;;;4.93;;
76155;SDS011;64906;51.290;7.348;2023-08-30T03:10:09;7.75;;;4.75;;
76155;SDS011;64906;51.290;7.348;2023-08-30T03:12:36;7.47;;;4.57;;
76155;SDS011;64906;51.290;7.348;2023-08-30T03:15:02;8.60;;;4.40;;
76155;SDS011;64906;51.290;7.348;2023-08-30T03:17:29;7.88;;;4.57;;
76155;SDS011;64906;51.290;7.348;2023-08-30T03:19:54;8.90;;;4.68;;
76155;SDS011;64906;51.290;7.348;2023-08-30T03:22:19;7.17;;;4.50;;
76155;SDS011;64906;51.290;7.348;2023-08-30T03:24:45;7.80;;;4.40;;
76155;SDS011;64906;51.290;7.348;2023-08-30T03:27:10;7.70;;;4.43;;
76155;SDS011;64906;51.290;7.348;2023-08-30T03:29:35;6.47;;;4.17;;
76155;SDS011;64906;51.290;7.348;2023-08-30T03:32:01;7.80;;;4.38;;
76155;SDS011;64906;51.290;7.348;2023-08-30T03:34:26;6.80;;;4.38;;
76155;SDS011;64906;51.290;7.348;2023-08-30T03:36:51;6.50;;;3.90;;
76155;SDS011;64906;51.290;7.348;2023-08-30T03:39:19;7.20;;;4.22;;
76155;SDS011;64906;51.290;7.348;2023-08-30T03:41:45;7.18;;;4.13;;
76155;SDS011;64906;51.290;7.348;2023-08-30T03:44:11;6.13;;;3.95;;
76155;SDS011;64906;51.290;7.348;2023-08-30T03:46:36;7.68;;;4.00;;
76155;SDS011;64906;51.290;7.348;2023-08-30T03:49:01;7.63;;;4.28;;
76155;SDS011;64906;51.290;7.348;2023-08-30T03:51:28;7.38;;;4.13;;
76155;SDS011;64906;51.290;7.348;2023-08-30T03:53:53;7.45;;;4.22;;
76155;SDS011;64906;51.290;7.348;2023-08-30T03:56:21;6.75;;;3.80;;
76155;SDS011;64906;51.290;7.348;2023-08-30T03:58:46;6.25;;;4.00;;
76155;SDS011;64906;51.290;7.348;2023-08-30T04:01:11;7.43;;;4.30;;
76155;SDS011;64906;51.290;7.348;2023-08-30T04:03:37;8.32;;;3.78;;
76155;SDS011;64906;51.290;7.348;2023-08-30T04:06:02;8.00;;;3.87;;
76155;SDS011;64906;51.290;7.348;2023-08-30T04:08:27;6.82;;;4.05;;
76155;SDS011;64906;51.290;7.348;2023-08-30T04:10:53;7.10;;;4.00;;
76155;SDS011;64906;51.290;7.348;2023-08-30T04:13:18;7.63;;;3.72;;
76155;SDS011;64906;51.290;7.348;2023-08-30T04:15:43;7.97;;;4.07;;
76155;SDS011;64906;51.290;7.348;2023-08-30T04:18:09;7.37;;;3.97;;
76155;SDS011;64906;51.290;7.348;2023-08-30T04:20:34;7.63;;;4.20;;
76155;SDS011;64906;51.290;7.348;2023-08-30T04:23:00;8.20;;;3.95;;
76155;SDS011;64906;51.290;7.348;2023-08-30T04:25:29;5.45;;;3.53;;
76155;SDS011;64906;51.290;7.348;2023-08-30T04:27:55;6.35;;;3.55;;
76155;SDS011;64906;51.290;7.348;2023-08-30T04:30:21;7.70;;;3.97;;
76155;SDS011;64906;51.290;7.348;2023-08-30T04:32:47;6.13;;;3.50;;
76155;SDS011;64906;51.290;7.348;2023-08-30T04:35:12;7.65;;;3.65;;
76155;SDS011;64906;51.290;7.348;2023-08-30T04:37:38;7.05;;;3.88;;
76155;SDS011;64906;51.290;7.348;2023-08-30T04:40:05;6.47;;;3.97;;
76155;SDS011;64906;51.290;7.348;2023-08-30T04:42:34;8.43;;;4.00;;
76155;SDS011;64906;51.290;7.348;2023-08-30T04:44:59;6.40;;;3.60;;
76155;SDS011;64906;51.290;7.348;2023-08-30T04:47:25;7.45;;;3.47;;
76155;SDS011;64906;51.290;7.348;2023-08-30T04:49:52;5.85;;;3.60;;
76155;SDS011;64906;51.290;7.348;2023-08-30T04:52:18;6.27;;;3.50;;
76155;SDS011;64906;51.290;7.348;2023-08-30T04:54:43;6.93;;;3.63;;
76155;SDS011;64906;51.290;7.348;2023-08-30T04:57:10;6.28;;;3.47;;
76155;SDS011;64906;51.290;7.348;2023-08-30T04:59:39;6.30;;;3.63;;
76155;SDS011;64906;51.290;7.348;2023-08-30T05:02:05;6.65;;;3.70;;
76155;SDS011;64906;51.290;7.348;2023-08-30T05:04:30;7.20;;;3.65;;
76155;SDS011;64906;51.290;7.348;2023-08-30T05:06:56;6.35;;;3.38;;
76155;SDS011;64906;51.290;7.348;2023-08-30T05:09:21;6.90;;;3.80;;
76155;SDS011;64906;51.290;7.348;2023-08-30T05:11:49;5.10;;;3.10;;
76155;SDS011;64906;51.290;7.348;2023-08-30T05:14:15;6.57;;;3.83;;
76155;SDS011;64906;51.290;7.348;2023-08-30T05:16:40;6.53;;;3.67;;
76155;SDS011;64906;51.290;7.348;2023-08-30T05:19:06;7.20;;;3.70;;
76155;SDS011;64906;51.290;7.348;2023-08-30T05:21:31;5.77;;;3.47;;
76155;SDS011;64906;51.290;7.348;2023-08-30T05:23:56;6.37;;;3.43;;
76155;SDS011;64906;51.290;7.348;2023-08-30T05:26:21;6.23;;;3.80;;
76155;SDS011;64906;51.290;7.348;2023-08-30T05:28:47;6.30;;;3.53;;
76155;SDS011;64906;51.290;7.348;2023-08-30T05:31:12;6.07;;;3.60;;
76155;SDS011;64906;51.290;7.348;2023-08-30T05:33:37;9.50;;;3.83;;
76155;SDS011;64906;51.290;7.348;2023-08-30T05:36:02;7.67;;;3.87;;
76155;SDS011;64906;51.290;7.348;2023-08-30T05:38:28;7.80;;;3.90;;
76155;SDS011;64906;51.290;7.348;2023-08-30T05:40:53;7.93;;;3.63;;
76155;SDS011;64906;51.290;7.348;2023-08-30T05:43:19;5.70;;;3.57;;
76155;SDS011;64906;51.290;7.348;2023-08-30T05:45:44;6.27;;;3.33;;
76155;SDS011;64906;51.290;7.348;2023-08-30T05:48:09;7.23;;;3.40;;
76155;SDS011;64906;51.290;7.348;2023-08-30T05:50:34;7.53;;;3.83;;
76155;SDS011;64906;51.290;7.348;2023-08-30T05:53:00;6.82;;;3.75;;
76155;SDS011;64906;51.290;7.348;2023-08-30T05:55:26;7.40;;;3.40;;
76155;SDS011;64906;51.290;7.348;2023-08-30T05:57:51;6.00;;;3.47;;
76155;SDS011;64906;51.290;7.348;2023-08-30T06:00:16;6.72;;;3.58;;
76155;SDS011;64906;51.290;7.348;2023-08-30T06:02:42;6.18;;;3.60;;
76155;SDS011;64906;51.290;7.348;2023-08-30T06:05:07;5.90;;;3.40;;
76155;SDS011;64906;51.290;7.348;2023-08-30T06:07:33;6.70;;;3.65;;
76155;SDS011;64906;51.290;7.348;2023-08-30T06:09:58;5.57;;;3.40;;
76155;SDS011;64906;51.290;7.348;2023-08-30T06:12:24;6.13;;;3.63;;
76155;SDS011;64906;51.290;7.348;2023-08-30T06:14:50;5.97;;;3.67;;
76155;SDS011;64906;51.290;7.348;2023-08-30T06:17:17;6.70;;;3.45;;
76155;SDS011;64906;51.290;7.348;2023-08-30T06:19:44;6.03;;;3.22;;
76155;SDS011;64906;51.290;7.348;2023-08-30T06:22:10;5.82;;;3.47;;
76155;SDS011;64906;51.290;7.348;2023-08-30T06:24:35;7.10;;;3.60;;
76155;SDS011;64906;51.290;7.348;2023-08-30T06:27:00;6.57;;;3.87;;
76155;SDS011;64906;51.290;7.348;2023-08-30T06:29:26;5.90;;;3.27;;
76155;SDS011;64906;51.290;7.348;2023-08-30T06:31:51;6.13;;;3.73;;
76155;SDS011;64906;51.290;7.348;2023-08-30T06:34:16;6.40;;;3.47;;
76155;SDS011;64906;51.290;7.348;2023-08-30T06:36:41;6.67;;;3.70;;
76155;SDS011;64906;51.290;7.348;2023-08-30T06:39:07;8.10;;;3.60;;
76155;SDS011;64906;51.290;7.348;2023-08-30T06:41:32;9.33;;;3.37;;
76155;SDS011;64906;51.290;7.348;2023-08-30T06:43:57;6.20;;;3.47;;
76155;SDS011;64906;51.290;7.348;2023-08-30T06:46:23;5.90;;;3.35;;
76155;SDS011;64906;51.290;7.348;2023-08-30T06:48:48;6.95;;;3.50;;
76155;SDS011;64906;51.290;7.348;2023-08-30T06:51:13;7.70;;;3.53;;
76155;SDS011;64906;51.290;7.348;2023-08-30T06:53:39;6.57;;;3.70;;
76155;SDS011;64906;51.290;7.348;2023-08-30T06:56:04;6.17;;;3.83;;
76155;SDS011;64906;51.290;7.348;2023-08-30T06:58:29;6.47;;;3.47;;
76155;SDS011;64906;51.290;7.348;2023-08-30T07:00:56;7.70;;;3.80;;
76155;SDS011;64906;51.290;7.348;2023-08-30T07:03:22;5.97;;;3.33;;
76155;SDS011;64906;51.290;7.348;2023-08-30T07:05:47;6.33;;;3.63;;
76155;SDS011;64906;51.290;7.348;2023-08-30T07:08:16;6.17;;;3.37;;
76155;SDS011;64906;51.290;7.348;2023-08-30T07:10:41;6.72;;;3.42;;
76155;SDS011;64906;51.290;7.348;2023-08-30T07:13:07;5.82;;;3.40;;
76155;SDS011;64906;51.290;7.348;2023-08-30T07:15:38;5.90;;;3.50;;
76155;SDS011;64906;51.290;7.348;2023-08-30T07:18:05;5.82;;;3.03;;
76155;SDS011;64906;51.290;7.348;2023-08-30T07:20:30;5.93;;;3.70;;
76155;SDS011;64906;51.290;7.348;2023-08-30T07:22:56;6.45;;;3.40;;
76155;SDS011;64906;51.290;7.348;2023-08-30T07:25:21;5.17;;;3.27;;
76155;SDS011;64906;51.290;7.348;2023-08-30T07:27:47;5.60;;;3.23;;
76155;SDS011;64906;51.290;7.348;2023-08-30T07:30:12;6.40;;;3.50;;
76155;SDS011;64906;51.290;7.348;2023-08-30T07:32:37;6.57;;;3.70;;
76155;SDS011;64906;51.290;7.348;2023-08-30T07:35:03;6.57;;;3.87;;
76155;SDS011;64906;51.290;7.348;2023-08-30T07:37:29;6.80;;;3.92;;
76155;SDS011;64906;51.290;7.348;2023-08-30T07:39:54;10.25;;;4.60;;
76155;SDS011;64906;51.290;7.348;2023-08-30T07:42:20;10.82;;;6.55;;
76155;SDS011;64906;51.290;7.348;2023-08-30T07:44:45;12.10;;;6.28;;
76155;SDS011;64906;51.290;7.348;2023-08-30T07:47:10;14.80;;;7.03;;
76155;SDS011;64906;51.290;7.348;2023-08-30T07:49:36;22.83;;;13.25;;
76155;SDS011;64906;51.290;7.348;2023-08-30T07:52:01;34.28;;;18.70;;
76155;SDS011;64906;51.290;7.348;2023-08-30T07:54:27;47.05;;;29.02;;
76155;SDS011;64906;51.290;7.348;2023-08-30T07:56:53;55.85;;;34.22;;
76155;SDS011;64906;51.290;7.348;2023-08-30T07:59:19;67.03;;;40.87;;
76155;SDS011;64906;51.290;7.348;2023-08-30T08:01:44;92.70;;;53.27;;
76155;SDS011;64906;51.290;7.348;2023-08-30T08:04:09;106.40;;;61.57;;
76155;SDS011;64906;51.290;7.348;2023-08-30T08:06:35;118.33;;;70.00;;
76155;SDS011;64906;51.290;7.348;2023-08-30T08:09:00;129.40;;;76.07;;
76155;SDS011;64906;51.290;7.348;2023-08-30T08:11:25;145.95;;;85.88;;
76155;SDS011;64906;51.290;7.348;2023-08-30T08:13:51;144.80;;;87.53;;
76155;SDS011;64906;51.290;7.348;2023-08-30T08:16:16;159.03;;;94.87;;
76155;SDS011;64906;51.290;7.348;2023-08-30T08:18:41;172.93;;;101.23;;
76155;SDS011;64906;51.290;7.348;2023-08-30T08:21:07;182.93;;;111.80;;
76155;SDS011;64906;51.290;7.348;2023-08-30T08:23:32;197.67;;;118.87;;
76155;SDS011;64906;51.290;7.348;2023-08-30T08:25:58;206.73;;;122.73;;
76155;SDS011;64906;51.290;7.348;2023-08-30T08:28:23;226.35;;;139.35;;
76155;SDS011;64906;51.290;7.348;2023-08-30T08:30:49;202.27;;;122.87;;
76155;SDS011;64906;51.290;7.348;2023-08-30T08:33:16;211.90;;;131.40;;
76155;SDS011;64906;51.290;7.348;2023-08-30T08:35:43;193.27;;;118.35;;
76155;SDS011;64906;51.290;7.348;2023-08-30T08:38:08;167.30;;;104.05;;
76155;SDS011;64906;51.290;7.348;2023-08-30T08:40:36;162.25;;;96.93;;
76155;SDS011;64906;51.290;7.348;2023-08-30T08:43:04;158.40;;;94.68;;
76155;SDS011;64906;51.290;7.348;2023-08-30T08:45:30;139.82;;;85.07;;
76155;SDS011;64906;51.290;7.348;2023-08-30T08:47:59;135.35;;;84.35;;
76155;SDS011;64906;51.290;7.348;2023-08-30T08:50:25;134.65;;;77.65;;
76155;SDS011;64906;51.290;7.348;2023-08-30T08:52:51;120.57;;;73.85;;
76155;SDS011;64906;51.290;7.348;2023-08-30T08:55:18;120.30;;;65.97;;
76155;SDS011;64906;51.290;7.348;2023-08-30T08:57:43;105.60;;;62.35;;
76155;SDS011;64906;51.290;7.348;2023-08-30T09:00:09;104.07;;;61.78;;
76155;SDS011;64906;51.290;7.348;2023-08-30T09:02:35;96.00;;;57.78;;
76155;SDS011;64906;51.290;7.348;2023-08-30T09:05:01;92.30;;;55.30;;
76155;SDS011;64906;51.290;7.348;2023-08-30T09:07:30;90.65;;;53.30;;
76155;SDS011;64906;51.290;7.348;2023-08-30T09:09:56;75.10;;;43.75;;
76155;SDS011;64906;51.290;7.348;2023-08-30T09:12:21;70.90;;;43.53;;
76155;SDS011;64906;51.290;7.348;2023-08-30T09:14:54;72.40;;;44.47;;
76155;SDS011;64906;51.290;7.348;2023-08-30T09:17:21;65.18;;;39.05;;
76155;SDS011;64906;51.290;7.348;2023-08-30T09:19:46;63.03;;;39.17;;
76155;SDS011;64906;51.290;7.348;2023-08-30T09:22:11;58.93;;;37.17;;
76155;SDS011;64906;51.290;7.348;2023-08-30T09:24:37;59.38;;;37.85;;
76155;SDS011;64906;51.290;7.348;2023-08-30T09:27:04;57.30;;;36.25;;
76155;SDS011;64906;51.290;7.348;2023-08-30T09:29:30;57.83;;;34.75;;
76155;SDS011;64906;51.290;7.348;2023-08-30T09:31:56;54.30;;;33.78;;
76155;SDS011;64906;51.290;7.348;2023-08-30T09:34:22;55.58;;;33.38;;
76155;SDS011;64906;51.290;7.348;2023-08-30T09:36:52;54.35;;;33.05;;
76155;SDS011;64906;51.290;7.348;2023-08-30T09:39:18;51.75;;;33.50;;
76155;SDS011;64906;51.290;7.348;2023-08-30T09:41:45;54.60;;;33.15;;
76155;SDS011;64906;51.290;7.348;2023-08-30T09:46:55;50.85;;;31.48;;
76155;SDS011;64906;51.290;7.348;2023-08-30T09:49:25;50.40;;;31.35;;
76155;SDS011;64906;51.290;7.348;2023-08-30T09:51:52;53.65;;;29.85;;
76155;SDS011;64906;51.290;7.348;2023-08-30T09:54:19;45.92;;;30.50;;
76155;SDS011;64906;51.290;7.348;2023-08-30T09:56:48;47.38;;;30.05;;
76155;SDS011;64906;51.290;7.348;2023-08-30T09:59:17;46.42;;;29.92;;
76155;SDS011;64906;51.290;7.348;2023-08-30T10:01:43;48.65;;;29.95;;
76155;SDS011;64906;51.290;7.348;2023-08-30T10:04:08;46.67;;;28.52;;
76155;SDS011;64906;51.290;7.348;2023-08-30T10:06:35;45.72;;;28.58;;
76155;SDS011;64906;51.290;7.348;2023-08-30T10:09:03;47.05;;;29.88;;
76155;SDS011;64906;51.290;7.348;2023-08-30T10:11:32;43.60;;;26.92;;
76155;SDS011;64906;51.290;7.348;2023-08-30T10:13:59;42.70;;;25.58;;
76155;SDS011;64906;51.290;7.348;2023-08-30T10:16:25;40.85;;;26.25;;
76155;SDS011;64906;51.290;7.348;2023-08-30T10:18:54;42.03;;;27.50;;
76155;SDS011;64906;51.290;7.348;2023-08-30T10:21:26;47.90;;;28.35;;
76155;SDS011;64906;51.290;7.348;2023-08-30T10:23:53;43.25;;;26.98;;
76155;SDS011;64906;51.290;7.348;2023-08-30T10:26:22;45.55;;;28.13;;
76155;SDS011;64906;51.290;7.348;2023-08-30T10:28:51;46.85;;;29.00;;
76155;SDS011;64906;51.290;7.348;2023-08-30T10:31:19;48.60;;;27.75;;
76155;SDS011;64906;51.290;7.348;2023-08-30T10:33:52;47.25;;;28.45;;
76155;SDS011;64906;51.290;7.348;2023-08-30T10:36:23;47.45;;;28.65;;
76155;SDS011;64906;51.290;7.348;2023-08-30T10:38:52;48.95;;;28.58;;
76155;SDS011;64906;51.290;7.348;2023-08-30T10:41:22;45.72;;;28.23;;
76155;SDS011;64906;51.290;7.348;2023-08-30T10:43:52;45.65;;;28.08;;
76155;SDS011;64906;51.290;7.348;2023-08-30T10:46:29;49.78;;;29.15;;
76155;SDS011;64906;51.290;7.348;2023-08-30T10:48:56;43.58;;;27.70;;
76155;SDS011;64906;51.290;7.348;2023-08-30T10:51:34;46.13;;;27.15;;
76155;SDS011;64906;51.290;7.348;2023-08-30T10:54:13;46.38;;;27.30;;
76155;SDS011;64906;51.290;7.348;2023-08-30T10:56:54;46.47;;;28.60;;
76155;SDS011;64906;51.290;7.348;2023-08-30T10:59:22;45.92;;;27.52;;
76155;SDS011;64906;51.290;7.348;2023-08-30T11:01:48;43.20;;;26.50;;
76155;SDS011;64906;51.290;7.348;2023-08-30T11:04:16;45.03;;;27.77;;
76155;SDS011;64906;51.290;7.348;2023-08-30T11:06:45;42.35;;;26.60;;
76155;SDS011;64906;51.290;7.348;2023-08-30T11:09:15;41.92;;;26.00;;
76155;SDS011;64906;51.290;7.348;2023-08-30T11:11:45;46.47;;;28.02;;
76155;SDS011;64906;51.290;7.348;2023-08-30T11:14:12;41.90;;;26.05;;
76155;SDS011;64906;51.290;7.348;2023-08-30T11:16:37;46.53;;;26.52;;
76155;SDS011;64906;51.290;7.348;2023-08-30T11:19:04;45.80;;;27.70;;
76155;SDS011;64906;51.290;7.348;2023-08-30T11:21:30;42.55;;;25.30;;
76155;SDS011;64906;51.290;7.348;2023-08-30T11:23:58;39.38;;;24.63;;
76155;SDS011;64906;51.290;7.348;2023-08-30T11:26:23;38.42;;;22.10;;
76155;SDS011;64906;51.290;7.348;2023-08-30T11:28:49;37.88;;;23.55;;
76155;SDS011;64906;51.290;7.348;2023-08-30T11:31:25;37.42;;;22.25;;
76155;SDS011;64906;51.290;7.348;2023-08-30T11:33:55;41.58;;;23.77;;
76155;SDS011;64906;51.290;7.348;2023-08-30T11:36:22;37.13;;;21.77;;
76155;SDS011;64906;51.290;7.348;2023-08-30T11:38:55;37.00;;;22.58;;
76155;SDS011;64906;51.290;7.348;2023-08-30T11:41:20;35.38;;;21.25;;
76155;SDS011;64906;51.290;7.348;2023-08-30T11:43:53;36.08;;;22.45;;
76155;SDS011;64906;51.290;7.348;2023-08-30T11:46:19;35.53;;;21.90;;
76155;SDS011;64906;51.290;7.348;2023-08-30T11:48:46;35.55;;;21.63;;
76155;SDS011;64906;51.290;7.348;2023-08-30T11:51:12;33.60;;;21.02;;
76155;SDS011;64906;51.290;7.348;2023-08-30T11:53:38;35.22;;;21.52;;
76155;SDS011;64906;51.290;7.348;2023-08-30T11:56:07;35.08;;;20.55;;
76155;SDS011;64906;51.290;7.348;2023-08-30T11:58:33;35.20;;;20.77;;
76155;SDS011;64906;51.290;7.348;2023-08-30T12:00:59;33.63;;;20.45;;
76155;SDS011;64906;51.290;7.348;2023-08-30T12:03:29;31.38;;;18.65;;
76155;SDS011;64906;51.290;7.348;2023-08-30T12:05:55;30.48;;;18.73;;
76155;SDS011;64906;51.290;7.348;2023-08-30T12:08:24;31.48;;;18.23;;
76155;SDS011;64906;51.290;7.348;2023-08-30T12:10:51;29.52;;;17.27;;
76155;SDS011;64906;51.290;7.348;2023-08-30T12:13:35;26.70;;;16.70;;
76155;SDS011;64906;51.290;7.348;2023-08-30T12:16:01;29.92;;;17.13;;
76155;SDS011;64906;51.290;7.348;2023-08-30T12:18:27;27.40;;;16.48;;
76155;SDS011;64906;51.290;7.348;2023-08-30T12:20:54;26.75;;;16.73;;
76155;SDS011;64906;51.290;7.348;2023-08-30T12:23:23;27.80;;;16.42;;
76155;SDS011;64906;51.290;7.348;2023-08-30T12:25:59;27.63;;;15.80;;
76155;SDS011;64906;51.290;7.348;2023-08-30T12:28:29;26.98;;;15.07;;
76155;SDS011;64906;51.290;7.348;2023-08-30T12:30:56;25.98;;;14.57;;
76155;SDS011;64906;51.290;7.348;2023-08-30T12:33:22;22.85;;;14.57;;
76155;SDS011;64906;51.290;7.348;2023-08-30T12:35:47;27.45;;;14.65;;
76155;SDS011;64906;51.290;7.348;2023-08-30T12:38:13;23.02;;;13.85;;
76155;SDS011;64906;51.290;7.348;2023-08-30T12:40:45;23.25;;;13.93;;
76155;SDS011;64906;51.290;7.348;2023-08-30T12:43:19;25.30;;;14.70;;
76155;SDS011;64906;51.290;7.348;2023-08-30T12:45:45;23.40;;;13.57;;
76155;SDS011;64906;51.290;7.348;2023-08-30T12:48:11;22.55;;;13.60;;
76155;SDS011;64906;51.290;7.348;2023-08-30T12:50:39;20.27;;;12.48;;
76155;SDS011;64906;51.290;7.348;2023-08-30T12:53:05;21.42;;;13.00;;
76155;SDS011;64906;51.290;7.348;2023-08-30T12:55:31;19.08;;;12.07;;
76155;SDS011;64906;51.290;7.348;2023-08-30T12:57:57;18.15;;;11.85;;
76155;SDS011;64906;51.290;7.348;2023-08-30T13:00:22;19.67;;;12.32;;
76155;SDS011;64906;51.290;7.348;2023-08-30T13:02:48;18.27;;;11.60;;
76155;SDS011;64906;51.290;7.348;2023-08-30T13:05:13;20.00;;;11.55;;
76155;SDS011;64906;51.290;7.348;2023-08-30T13:07:39;20.55;;;11.85;;
76155;SDS011;64906;51.290;7.348;2023-08-30T13:10:05;17.67;;;11.03;;
76155;SDS011;64906;51.290;7.348;2023-08-30T13:12:31;18.40;;;11.20;;
76155;SDS011;64906;51.290;7.348;2023-08-30T13:14:57;17.30;;;11.15;;
76155;SDS011;64906;51.290;7.348;2023-08-30T13:17:22;17.30;;;10.65;;
76155;SDS011;64906;51.290;7.348;2023-08-30T13:19:48;17.70;;;10.73;;
76155;SDS011;64906;51.290;7.348;2023-08-30T13:22:14;17.08;;;10.55;;
76155;SDS011;64906;51.290;7.348;2023-08-30T13:24:39;15.30;;;10.00;;
76155;SDS011;64906;51.290;7.348;2023-08-30T13:27:05;18.67;;;10.90;;
76155;SDS011;64906;51.290;7.348;2023-08-30T13:29:31;17.42;;;10.13;;
76155;SDS011;64906;51.290;7.348;2023-08-30T13:31:56;17.77;;;10.25;;
76155;SDS011;64906;51.290;7.348;2023-08-30T13:34:21;17.30;;;9.77;;
76155;SDS011;64906;51.290;7.348;2023-08-30T13:36:47;15.83;;;9.30;;
76155;SDS011;64906;51.290;7.348;2023-08-30T13:39:12;16.60;;;10.00;;
76155;SDS011;64906;51.290;7.348;2023-08-30T13:41:37;16.17;;;10.13;;
76155;SDS011;64906;51.290;7.348;2023-08-30T13:44:03;16.13;;;9.53;;
76155;SDS011;64906;51.290;7.348;2023-08-30T13:46:29;14.15;;;9.10;;
76155;SDS011;64906;51.290;7.348;2023-08-30T13:48:54;15.35;;;9.32;;
76155;SDS011;64906;51.290;7.348;2023-08-30T13:51:21;15.48;;;9.38;;
76155;SDS011;64906;51.290;7.348;2023-08-30T13:53:47;14.45;;;8.70;;
76155;SDS011;64906;51.290;7.348;2023-08-30T13:56:12;17.43;;;9.73;;
76155;SDS011;64906;51.290;7.348;2023-08-30T13:58:37;23.27;;;13.90;;
76155;SDS011;64906;51.290;7.348;2023-08-30T14:01:03;34.25;;;21.58;;
76155;SDS011;64906;51.290;7.348;2023-08-30T14:03:29;42.60;;;27.30;;
76155;SDS011;64906;51.290;7.348;2023-08-30T14:05:55;51.08;;;31.75;;
76155;SDS011;64906;51.290;7.348;2023-08-30T14:08:20;54.63;;;35.87;;
76155;SDS011;64906;51.290;7.348;2023-08-30T14:10:45;56.80;;;36.73;;
76155;SDS011;64906;51.290;7.348;2023-08-30T14:13:11;56.78;;;37.22;;
76155;SDS011;64906;51.290;7.348;2023-08-30T14:15:36;61.10;;;38.23;;
76155;SDS011;64906;51.290;7.348;2023-08-30T14:18:01;57.00;;;36.13;;
76155;SDS011;64906;51.290;7.348;2023-08-30T14:20:27;55.70;;;35.65;;
76155;SDS011;64906;51.290;7.348;2023-08-30T14:22:53;53.75;;;35.70;;
76155;SDS011;64906;51.290;7.348;2023-08-30T14:25:18;51.83;;;33.87;;
76155;SDS011;64906;51.290;7.348;2023-08-30T14:27:43;48.60;;;32.35;;
76155;SDS011;64906;51.290;7.348;2023-08-30T14:30:09;47.93;;;31.17;;
76155;SDS011;64906;51.290;7.348;2023-08-30T14:32:34;45.40;;;29.08;;
76155;SDS011;64906;51.290;7.348;2023-08-30T14:35:00;44.17;;;27.80;;